Terminal Aerodrome Forecast
Issued by NWS Boston, MA

Home | Current Version | Previous Version | Text Only | Print | Product List | Glossary On
Versions: 1 2 3 4 5 6 7 8 9 10 11 12 13 14 15 16 17 18 19 20 21 22 23 24 25 26 27 28 29 30 31 32 33 34 35 36 37 38 39 40 41 42 43 44 45 46 47 48 49 50
000
FTUS41 KBOX 222328
TAFBOS
TAF
KBOS 222328Z 2300/2406 02013KT 2SM SHRA BR OVC008
     FM230300 02009KT 4SM -SHRA BR OVC008
     FM230900 36009KT 6SM BR OVC008
     FM231600 03009KT P6SM OVC010
     FM231800 05007KT P6SM BKN025
     FM240300 13006KT P6SM BKN020
     FM240500 15007KT P6SM BKN010=

USA.gov is the U.S. government's official web portal to all federal, state and local government web resources and services.